sensor_id;sensor_type;location;lat;lon;timestamp;P1;durP1;ratioP1;P2;durP2;ratioP2
27706;SDS011;36332;51.384;0.040;2022-07-21T00:00:22;10.32;;;5.95;;
27706;SDS011;36332;51.384;0.040;2022-07-21T00:02:52;14.07;;;5.20;;
27706;SDS011;36332;51.384;0.040;2022-07-21T00:05:20;9.85;;;4.90;;
27706;SDS011;36332;51.384;0.040;2022-07-21T00:07:48;9.90;;;5.07;;
27706;SDS011;36332;51.384;0.040;2022-07-21T00:10:16;10.32;;;5.43;;
27706;SDS011;36332;51.384;0.040;2022-07-21T00:12:45;9.65;;;5.05;;
27706;SDS011;36332;51.384;0.040;2022-07-21T00:15:13;13.80;;;5.82;;
27706;SDS011;36332;51.384;0.040;2022-07-21T00:17:42;12.18;;;5.70;;
27706;SDS011;36332;51.384;0.040;2022-07-21T00:20:11;13.75;;;6.03;;
27706;SDS011;36332;51.384;0.040;2022-07-21T00:22:40;8.98;;;5.40;;
27706;SDS011;36332;51.384;0.040;2022-07-21T00:25:08;11.13;;;5.28;;
27706;SDS011;36332;51.384;0.040;2022-07-21T00:27:37;9.70;;;5.53;;
27706;SDS011;36332;51.384;0.040;2022-07-21T00:30:06;10.80;;;5.05;;
27706;SDS011;36332;51.384;0.040;2022-07-21T00:32:35;10.10;;;5.38;;
27706;SDS011;36332;51.384;0.040;2022-07-21T00:35:04;13.98;;;5.93;;
27706;SDS011;36332;51.384;0.040;2022-07-21T00:37:35;12.65;;;6.18;;
27706;SDS011;36332;51.384;0.040;2022-07-21T00:40:04;11.32;;;5.50;;
27706;SDS011;36332;51.384;0.040;2022-07-21T00:42:39;10.68;;;5.25;;
27706;SDS011;36332;51.384;0.040;2022-07-21T00:45:07;14.13;;;5.72;;
27706;SDS011;36332;51.384;0.040;2022-07-21T00:47:38;14.20;;;5.90;;
27706;SDS011;36332;51.384;0.040;2022-07-21T00:50:08;14.65;;;6.05;;
27706;SDS011;36332;51.384;0.040;2022-07-21T00:52:37;14.73;;;6.22;;
27706;SDS011;36332;51.384;0.040;2022-07-21T00:55:06;11.10;;;6.18;;
27706;SDS011;36332;51.384;0.040;2022-07-21T00:57:36;15.55;;;6.78;;
27706;SDS011;36332;51.384;0.040;2022-07-21T01:00:05;11.02;;;6.45;;
27706;SDS011;36332;51.384;0.040;2022-07-21T01:02:35;14.52;;;6.03;;
27706;SDS011;36332;51.384;0.040;2022-07-21T01:05:04;16.55;;;6.47;;
27706;SDS011;36332;51.384;0.040;2022-07-21T01:07:38;15.25;;;6.30;;
27706;SDS011;36332;51.384;0.040;2022-07-21T01:10:06;12.43;;;5.72;;
27706;SDS011;36332;51.384;0.040;2022-07-21T01:12:34;14.65;;;5.82;;
27706;SDS011;36332;51.384;0.040;2022-07-21T01:15:03;13.35;;;6.03;;
27706;SDS011;36332;51.384;0.040;2022-07-21T01:17:32;14.73;;;6.45;;
27706;SDS011;36332;51.384;0.040;2022-07-21T01:20:05;10.68;;;6.65;;
27706;SDS011;36332;51.384;0.040;2022-07-21T01:22:36;10.48;;;5.95;;
27706;SDS011;36332;51.384;0.040;2022-07-21T01:25:06;16.13;;;6.82;;
27706;SDS011;36332;51.384;0.040;2022-07-21T01:27:35;17.80;;;6.90;;
27706;SDS011;36332;51.384;0.040;2022-07-21T01:30:04;17.58;;;6.30;;
27706;SDS011;36332;51.384;0.040;2022-07-21T01:32:37;14.45;;;6.35;;
27706;SDS011;36332;51.384;0.040;2022-07-21T01:35:07;10.55;;;5.80;;
27706;SDS011;36332;51.384;0.040;2022-07-21T01:37:37;14.35;;;5.43;;
27706;SDS011;36332;51.384;0.040;2022-07-21T01:40:07;16.88;;;6.00;;
27706;SDS011;36332;51.384;0.040;2022-07-21T01:45:21;13.38;;;5.63;;
27706;SDS011;36332;51.384;0.040;2022-07-21T01:47:49;16.80;;;5.25;;
27706;SDS011;36332;51.384;0.040;2022-07-21T01:50:17;10.30;;;5.13;;
27706;SDS011;36332;51.384;0.040;2022-07-21T01:52:48;11.75;;;4.95;;
27706;SDS011;36332;51.384;0.040;2022-07-21T01:55:15;10.68;;;5.70;;
27706;SDS011;36332;51.384;0.040;2022-07-21T01:57:43;9.45;;;5.45;;
27706;SDS011;36332;51.384;0.040;2022-07-21T02:00:11;14.25;;;5.45;;
27706;SDS011;36332;51.384;0.040;2022-07-21T02:02:39;12.75;;;4.47;;
27706;SDS011;36332;51.384;0.040;2022-07-21T02:05:07;15.23;;;4.38;;
27706;SDS011;36332;51.384;0.040;2022-07-21T02:07:35;11.82;;;4.63;;
27706;SDS011;36332;51.384;0.040;2022-07-21T02:10:03;13.50;;;4.75;;
27706;SDS011;36332;51.384;0.040;2022-07-21T02:12:31;12.65;;;5.18;;
27706;SDS011;36332;51.384;0.040;2022-07-21T02:14:59;13.27;;;4.75;;
27706;SDS011;36332;51.384;0.040;2022-07-21T02:17:27;9.75;;;5.03;;
27706;SDS011;36332;51.384;0.040;2022-07-21T02:19:55;10.38;;;4.72;;
27706;SDS011;36332;51.384;0.040;2022-07-21T02:22:23;10.13;;;4.15;;
27706;SDS011;36332;51.384;0.040;2022-07-21T02:24:52;14.02;;;4.75;;
27706;SDS011;36332;51.384;0.040;2022-07-21T02:27:20;11.02;;;4.57;;
27706;SDS011;36332;51.384;0.040;2022-07-21T02:29:48;18.50;;;5.13;;
27706;SDS011;36332;51.384;0.040;2022-07-21T02:32:16;16.88;;;5.43;;
27706;SDS011;36332;51.384;0.040;2022-07-21T02:34:44;11.65;;;4.85;;
27706;SDS011;36332;51.384;0.040;2022-07-21T02:37:12;11.80;;;4.80;;
27706;SDS011;36332;51.384;0.040;2022-07-21T02:39:39;12.80;;;4.03;;
27706;SDS011;36332;51.384;0.040;2022-07-21T02:42:07;8.80;;;4.38;;
27706;SDS011;36332;51.384;0.040;2022-07-21T02:44:35;13.90;;;4.72;;
27706;SDS011;36332;51.384;0.040;2022-07-21T02:47:03;8.95;;;4.10;;
27706;SDS011;36332;51.384;0.040;2022-07-21T02:49:31;10.40;;;4.55;;
27706;SDS011;36332;51.384;0.040;2022-07-21T02:51:59;11.02;;;4.93;;
27706;SDS011;36332;51.384;0.040;2022-07-21T02:54:27;13.63;;;4.53;;
27706;SDS011;36332;51.384;0.040;2022-07-21T02:56:55;11.45;;;4.70;;
27706;SDS011;36332;51.384;0.040;2022-07-21T02:59:23;8.93;;;4.30;;
27706;SDS011;36332;51.384;0.040;2022-07-21T03:01:51;10.48;;;4.50;;
27706;SDS011;36332;51.384;0.040;2022-07-21T03:04:19;11.35;;;5.10;;
27706;SDS011;36332;51.384;0.040;2022-07-21T03:06:47;13.60;;;4.50;;
27706;SDS011;36332;51.384;0.040;2022-07-21T03:09:15;8.18;;;4.65;;
27706;SDS011;36332;51.384;0.040;2022-07-21T03:11:43;10.68;;;4.93;;
27706;SDS011;36332;51.384;0.040;2022-07-21T03:14:10;10.82;;;4.93;;
27706;SDS011;36332;51.384;0.040;2022-07-21T03:16:38;13.50;;;5.22;;
27706;SDS011;36332;51.384;0.040;2022-07-21T03:19:06;10.60;;;5.00;;
27706;SDS011;36332;51.384;0.040;2022-07-21T03:21:39;11.75;;;5.13;;
27706;SDS011;36332;51.384;0.040;2022-07-21T03:24:07;9.52;;;4.43;;
27706;SDS011;36332;51.384;0.040;2022-07-21T03:26:35;14.50;;;4.60;;
27706;SDS011;36332;51.384;0.040;2022-07-21T03:29:05;8.45;;;4.57;;
27706;SDS011;36332;51.384;0.040;2022-07-21T03:31:33;13.45;;;5.18;;
27706;SDS011;36332;51.384;0.040;2022-07-21T03:34:01;14.30;;;5.45;;
27706;SDS011;36332;51.384;0.040;2022-07-21T03:36:29;10.68;;;5.65;;
27706;SDS011;36332;51.384;0.040;2022-07-21T03:38:57;13.88;;;4.82;;
27706;SDS011;36332;51.384;0.040;2022-07-21T03:41:25;10.43;;;5.22;;
27706;SDS011;36332;51.384;0.040;2022-07-21T03:43:53;12.15;;;4.80;;
27706;SDS011;36332;51.384;0.040;2022-07-21T03:46:21;8.27;;;4.47;;
27706;SDS011;36332;51.384;0.040;2022-07-21T03:48:49;11.93;;;4.78;;
27706;SDS011;36332;51.384;0.040;2022-07-21T03:51:19;9.55;;;4.40;;
27706;SDS011;36332;51.384;0.040;2022-07-21T03:53:47;12.75;;;4.93;;
27706;SDS011;36332;51.384;0.040;2022-07-21T03:56:16;11.90;;;4.75;;
27706;SDS011;36332;51.384;0.040;2022-07-21T03:58:44;16.17;;;5.80;;
27706;SDS011;36332;51.384;0.040;2022-07-21T04:01:12;12.25;;;4.93;;
27706;SDS011;36332;51.384;0.040;2022-07-21T04:03:40;10.80;;;4.63;;
27706;SDS011;36332;51.384;0.040;2022-07-21T04:06:08;11.80;;;5.45;;
27706;SDS011;36332;51.384;0.040;2022-07-21T04:08:37;13.77;;;5.15;;
27706;SDS011;36332;51.384;0.040;2022-07-21T04:11:05;13.07;;;5.70;;
27706;SDS011;36332;51.384;0.040;2022-07-21T04:13:33;11.48;;;4.97;;
27706;SDS011;36332;51.384;0.040;2022-07-21T04:16:01;16.58;;;5.68;;
27706;SDS011;36332;51.384;0.040;2022-07-21T04:18:29;14.43;;;5.30;;
27706;SDS011;36332;51.384;0.040;2022-07-21T04:20:57;14.93;;;5.63;;
27706;SDS011;36332;51.384;0.040;2022-07-21T04:23:25;13.85;;;5.20;;
27706;SDS011;36332;51.384;0.040;2022-07-21T04:25:53;15.18;;;5.43;;
27706;SDS011;36332;51.384;0.040;2022-07-21T04:28:21;17.58;;;5.95;;
27706;SDS011;36332;51.384;0.040;2022-07-21T04:30:53;11.25;;;5.03;;
27706;SDS011;36332;51.384;0.040;2022-07-21T04:33:22;12.60;;;4.88;;
27706;SDS011;36332;51.384;0.040;2022-07-21T04:35:49;15.68;;;5.30;;
27706;SDS011;36332;51.384;0.040;2022-07-21T04:38:17;11.52;;;4.18;;
27706;SDS011;36332;51.384;0.040;2022-07-21T04:40:45;9.13;;;3.80;;
27706;SDS011;36332;51.384;0.040;2022-07-21T04:43:13;18.27;;;5.03;;
27706;SDS011;36332;51.384;0.040;2022-07-21T04:45:41;12.10;;;4.35;;
27706;SDS011;36332;51.384;0.040;2022-07-21T04:48:09;13.90;;;4.05;;
27706;SDS011;36332;51.384;0.040;2022-07-21T04:50:37;12.80;;;3.78;;
27706;SDS011;36332;51.384;0.040;2022-07-21T04:53:04;10.48;;;4.00;;
27706;SDS011;36332;51.384;0.040;2022-07-21T04:55:32;9.43;;;4.00;;
27706;SDS011;36332;51.384;0.040;2022-07-21T04:58:00;10.57;;;3.50;;
27706;SDS011;36332;51.384;0.040;2022-07-21T05:00:28;11.48;;;3.35;;
27706;SDS011;36332;51.384;0.040;2022-07-21T05:02:56;10.27;;;3.45;;
27706;SDS011;36332;51.384;0.040;2022-07-21T05:05:25;11.52;;;3.58;;
27706;SDS011;36332;51.384;0.040;2022-07-21T05:07:54;9.63;;;3.40;;
27706;SDS011;36332;51.384;0.040;2022-07-21T05:10:22;16.90;;;3.80;;
27706;SDS011;36332;51.384;0.040;2022-07-21T05:12:50;12.13;;;3.47;;
27706;SDS011;36332;51.384;0.040;2022-07-21T05:15:18;14.63;;;3.70;;
27706;SDS011;36332;51.384;0.040;2022-07-21T05:17:46;10.00;;;2.92;;
27706;SDS011;36332;51.384;0.040;2022-07-21T05:20:14;8.00;;;3.17;;
27706;SDS011;36332;51.384;0.040;2022-07-21T05:22:43;12.57;;;3.50;;
27706;SDS011;36332;51.384;0.040;2022-07-21T05:25:10;11.45;;;3.92;;
27706;SDS011;36332;51.384;0.040;2022-07-21T05:27:38;16.60;;;4.25;;
27706;SDS011;36332;51.384;0.040;2022-07-21T05:30:07;8.35;;;3.45;;
27706;SDS011;36332;51.384;0.040;2022-07-21T05:32:35;9.98;;;4.22;;
27706;SDS011;36332;51.384;0.040;2022-07-21T05:35:10;8.43;;;3.35;;
27706;SDS011;36332;51.384;0.040;2022-07-21T05:37:39;10.15;;;3.53;;
27706;SDS011;36332;51.384;0.040;2022-07-21T05:40:08;12.55;;;3.65;;
27706;SDS011;36332;51.384;0.040;2022-07-21T05:42:36;13.30;;;3.75;;
27706;SDS011;36332;51.384;0.040;2022-07-21T05:45:07;21.60;;;4.00;;
27706;SDS011;36332;51.384;0.040;2022-07-21T05:47:35;7.47;;;3.10;;
27706;SDS011;36332;51.384;0.040;2022-07-21T05:50:03;8.77;;;3.20;;
27706;SDS011;36332;51.384;0.040;2022-07-21T05:52:31;10.15;;;3.50;;
27706;SDS011;36332;51.384;0.040;2022-07-21T05:54:59;10.43;;;3.50;;
27706;SDS011;36332;51.384;0.040;2022-07-21T05:57:27;18.35;;;3.47;;
27706;SDS011;36332;51.384;0.040;2022-07-21T05:59:55;13.48;;;3.47;;
27706;SDS011;36332;51.384;0.040;2022-07-21T06:02:25;9.40;;;3.20;;
27706;SDS011;36332;51.384;0.040;2022-07-21T06:04:53;12.23;;;3.10;;
27706;SDS011;36332;51.384;0.040;2022-07-21T06:07:21;9.98;;;3.08;;
27706;SDS011;36332;51.384;0.040;2022-07-21T06:09:49;8.55;;;3.03;;
27706;SDS011;36332;51.384;0.040;2022-07-21T06:12:17;16.15;;;3.60;;
27706;SDS011;36332;51.384;0.040;2022-07-21T06:14:45;12.07;;;4.05;;
27706;SDS011;36332;51.384;0.040;2022-07-21T06:17:13;12.70;;;4.25;;
27706;SDS011;36332;51.384;0.040;2022-07-21T06:19:41;10.88;;;3.28;;
27706;SDS011;36332;51.384;0.040;2022-07-21T06:22:09;10.55;;;3.25;;
27706;SDS011;36332;51.384;0.040;2022-07-21T06:24:37;11.02;;;3.38;;
27706;SDS011;36332;51.384;0.040;2022-07-21T06:27:04;10.95;;;3.22;;
27706;SDS011;36332;51.384;0.040;2022-07-21T06:29:33;10.57;;;3.67;;
27706;SDS011;36332;51.384;0.040;2022-07-21T06:32:01;9.50;;;3.60;;
27706;SDS011;36332;51.384;0.040;2022-07-21T06:34:29;7.13;;;3.33;;
27706;SDS011;36332;51.384;0.040;2022-07-21T06:36:57;14.48;;;3.70;;
27706;SDS011;36332;51.384;0.040;2022-07-21T06:39:25;5.30;;;3.47;;
27706;SDS011;36332;51.384;0.040;2022-07-21T06:41:53;15.23;;;4.28;;
27706;SDS011;36332;51.384;0.040;2022-07-21T06:44:21;13.73;;;3.65;;
27706;SDS011;36332;51.384;0.040;2022-07-21T06:46:51;9.98;;;3.60;;
27706;SDS011;36332;51.384;0.040;2022-07-21T06:49:19;17.45;;;4.78;;
27706;SDS011;36332;51.384;0.040;2022-07-21T06:51:56;8.98;;;3.47;;
27706;SDS011;36332;51.384;0.040;2022-07-21T06:54:24;12.73;;;3.83;;
27706;SDS011;36332;51.384;0.040;2022-07-21T06:56:52;17.70;;;4.78;;
27706;SDS011;36332;51.384;0.040;2022-07-21T06:59:20;11.57;;;4.65;;
27706;SDS011;36332;51.384;0.040;2022-07-21T07:01:48;14.98;;;4.45;;
27706;SDS011;36332;51.384;0.040;2022-07-21T07:04:18;16.05;;;4.35;;
27706;SDS011;36332;51.384;0.040;2022-07-21T07:06:46;12.65;;;4.15;;
27706;SDS011;36332;51.384;0.040;2022-07-21T07:09:18;13.25;;;3.75;;
27706;SDS011;36332;51.384;0.040;2022-07-21T07:11:46;13.70;;;4.68;;
27706;SDS011;36332;51.384;0.040;2022-07-21T07:14:35;10.63;;;4.13;;
27706;SDS011;36332;51.384;0.040;2022-07-21T07:17:04;15.05;;;5.35;;
27706;SDS011;36332;51.384;0.040;2022-07-21T07:19:32;14.68;;;4.90;;
27706;SDS011;36332;51.384;0.040;2022-07-21T07:22:00;12.20;;;4.93;;
27706;SDS011;36332;51.384;0.040;2022-07-21T07:24:28;14.68;;;4.82;;
27706;SDS011;36332;51.384;0.040;2022-07-21T07:26:56;13.68;;;4.00;;
27706;SDS011;36332;51.384;0.040;2022-07-21T07:29:24;17.10;;;5.05;;
27706;SDS011;36332;51.384;0.040;2022-07-21T07:31:52;13.68;;;4.57;;
27706;SDS011;36332;51.384;0.040;2022-07-21T07:34:21;15.05;;;5.07;;
27706;SDS011;36332;51.384;0.040;2022-07-21T07:36:49;18.40;;;4.80;;
27706;SDS011;36332;51.384;0.040;2022-07-21T07:39:18;15.05;;;4.75;;
27706;SDS011;36332;51.384;0.040;2022-07-21T07:41:46;18.08;;;4.70;;
27706;SDS011;36332;51.384;0.040;2022-07-21T07:44:14;16.77;;;5.72;;
27706;SDS011;36332;51.384;0.040;2022-07-21T07:46:42;12.23;;;4.15;;
27706;SDS011;36332;51.384;0.040;2022-07-21T07:49:10;17.88;;;5.57;;
27706;SDS011;36332;51.384;0.040;2022-07-21T07:51:44;21.25;;;5.22;;
27706;SDS011;36332;51.384;0.040;2022-07-21T07:54:12;14.80;;;4.65;;
27706;SDS011;36332;51.384;0.040;2022-07-21T07:56:41;17.48;;;4.80;;
27706;SDS011;36332;51.384;0.040;2022-07-21T07:59:09;12.77;;;4.97;;
27706;SDS011;36332;51.384;0.040;2022-07-21T08:01:36;14.75;;;4.68;;
27706;SDS011;36332;51.384;0.040;2022-07-21T08:04:05;16.60;;;4.85;;
27706;SDS011;36332;51.384;0.040;2022-07-21T08:06:33;10.15;;;4.97;;
27706;SDS011;36332;51.384;0.040;2022-07-21T08:09:01;15.70;;;4.60;;
27706;SDS011;36332;51.384;0.040;2022-07-21T08:11:29;14.05;;;4.97;;
27706;SDS011;36332;51.384;0.040;2022-07-21T08:13:57;13.10;;;3.88;;
27706;SDS011;36332;51.384;0.040;2022-07-21T08:16:25;14.63;;;5.03;;
27706;SDS011;36332;51.384;0.040;2022-07-21T08:18:53;13.43;;;4.95;;
27706;SDS011;36332;51.384;0.040;2022-07-21T08:21:21;18.92;;;5.07;;
27706;SDS011;36332;51.384;0.040;2022-07-21T08:23:49;13.20;;;5.10;;
27706;SDS011;36332;51.384;0.040;2022-07-21T08:26:17;13.98;;;4.60;;
27706;SDS011;36332;51.384;0.040;2022-07-21T08:28:46;13.75;;;4.95;;
27706;SDS011;36332;51.384;0.040;2022-07-21T08:31:14;12.52;;;4.30;;
27706;SDS011;36332;51.384;0.040;2022-07-21T08:33:42;14.60;;;4.38;;
27706;SDS011;36332;51.384;0.040;2022-07-21T08:36:10;10.32;;;3.90;;
27706;SDS011;36332;51.384;0.040;2022-07-21T08:38:37;13.05;;;3.85;;
27706;SDS011;36332;51.384;0.040;2022-07-21T08:41:05;15.10;;;4.20;;
27706;SDS011;36332;51.384;0.040;2022-07-21T08:43:35;10.38;;;4.30;;
27706;SDS011;36332;51.384;0.040;2022-07-21T08:46:03;14.18;;;4.20;;
27706;SDS011;36332;51.384;0.040;2022-07-21T08:48:32;13.82;;;4.00;;
27706;SDS011;36332;51.384;0.040;2022-07-21T08:51:00;12.95;;;4.40;;
27706;SDS011;36332;51.384;0.040;2022-07-21T08:53:28;18.42;;;5.20;;
27706;SDS011;36332;51.384;0.040;2022-07-21T08:55:56;15.18;;;4.40;;
27706;SDS011;36332;51.384;0.040;2022-07-21T08:58:24;12.32;;;4.50;;
27706;SDS011;36332;51.384;0.040;2022-07-21T09:00:52;9.75;;;4.75;;
27706;SDS011;36332;51.384;0.040;2022-07-21T09:03:22;10.27;;;3.72;;
27706;SDS011;36332;51.384;0.040;2022-07-21T09:06:09;10.27;;;4.00;;
27706;SDS011;36332;51.384;0.040;2022-07-21T09:08:39;12.38;;;3.78;;
27706;SDS011;36332;51.384;0.040;2022-07-21T09:13:40;20.90;;;4.57;;
27706;SDS011;36332;51.384;0.040;2022-07-21T09:16:09;15.90;;;4.97;;
27706;SDS011;36332;51.384;0.040;2022-07-21T09:18:50;14.23;;;5.53;;
27706;SDS011;36332;51.384;0.040;2022-07-21T09:21:19;11.55;;;4.20;;
27706;SDS011;36332;51.384;0.040;2022-07-21T09:23:47;16.33;;;3.90;;
27706;SDS011;36332;51.384;0.040;2022-07-21T09:26:15;11.57;;;4.07;;
27706;SDS011;36332;51.384;0.040;2022-07-21T09:28:46;12.75;;;3.72;;
27706;SDS011;36332;51.384;0.040;2022-07-21T09:31:15;9.20;;;4.45;;
27706;SDS011;36332;51.384;0.040;2022-07-21T09:33:44;7.38;;;3.80;;
27706;SDS011;36332;51.384;0.040;2022-07-21T09:36:14;8.10;;;3.92;;
27706;SDS011;36332;51.384;0.040;2022-07-21T09:38:44;10.00;;;3.95;;
27706;SDS011;36332;51.384;0.040;2022-07-21T09:41:13;8.95;;;3.53;;
27706;SDS011;36332;51.384;0.040;2022-07-21T09:43:43;12.35;;;4.40;;
27706;SDS011;36332;51.384;0.040;2022-07-21T09:46:25;8.20;;;3.55;;
27706;SDS011;36332;51.384;0.040;2022-07-21T09:48:57;10.30;;;3.63;;
27706;SDS011;36332;51.384;0.040;2022-07-21T09:51:47;10.85;;;4.45;;
27706;SDS011;36332;51.384;0.040;2022-07-21T09:54:15;9.90;;;4.57;;
27706;SDS011;36332;51.384;0.040;2022-07-21T09:56:44;7.13;;;3.45;;
27706;SDS011;36332;51.384;0.040;2022-07-21T09:59:12;9.13;;;4.00;;
27706;SDS011;36332;51.384;0.040;2022-07-21T10:01:40;10.15;;;4.13;;
27706;SDS011;36332;51.384;0.040;2022-07-21T10:04:08;7.93;;;3.65;;
27706;SDS011;36332;51.384;0.040;2022-07-21T10:06:38;10.73;;;4.40;;
27706;SDS011;36332;51.384;0.040;2022-07-21T10:09:07;10.77;;;4.18;;
27706;SDS011;36332;51.384;0.040;2022-07-21T10:11:38;12.02;;;4.78;;
27706;SDS011;36332;51.384;0.040;2022-07-21T10:14:12;8.48;;;4.50;;
27706;SDS011;36332;51.384;0.040;2022-07-21T10:16:40;10.32;;;4.88;;
27706;SDS011;36332;51.384;0.040;2022-07-21T10:19:25;9.55;;;4.45;;
27706;SDS011;36332;51.384;0.040;2022-07-21T10:22:06;10.18;;;4.50;;
27706;SDS011;36332;51.384;0.040;2022-07-21T10:24:41;8.00;;;4.53;;
27706;SDS011;36332;51.384;0.040;2022-07-21T10:27:12;12.38;;;4.30;;
27706;SDS011;36332;51.384;0.040;2022-07-21T10:29:50;10.10;;;3.60;;
27706;SDS011;36332;51.384;0.040;2022-07-21T10:34:59;17.13;;;4.95;;
27706;SDS011;36332;51.384;0.040;2022-07-21T10:37:50;13.73;;;4.70;;
27706;SDS011;36332;51.384;0.040;2022-07-21T10:45:29;9.07;;;4.95;;
27706;SDS011;36332;51.384;0.040;2022-07-21T10:48:02;12.80;;;3.97;;
27706;SDS011;36332;51.384;0.040;2022-07-21T10:50:39;8.50;;;4.32;;
27706;SDS011;36332;51.384;0.040;2022-07-21T10:55:45;12.38;;;4.55;;
27706;SDS011;36332;51.384;0.040;2022-07-21T10:58:23;12.05;;;4.50;;
27706;SDS011;36332;51.384;0.040;2022-07-21T11:03:36;7.93;;;4.32;;
27706;SDS011;36332;51.384;0.040;2022-07-21T11:08:54;10.25;;;4.30;;
27706;SDS011;36332;51.384;0.040;2022-07-21T11:11:55;8.73;;;4.10;;
27706;SDS011;36332;51.384;0.040;2022-07-21T11:14:41;7.75;;;4.40;;
27706;SDS011;36332;51.384;0.040;2022-07-21T11:17:29;10.80;;;4.50;;
27706;SDS011;36332;51.384;0.040;2022-07-21T11:19:59;10.10;;;3.38;;
27706;SDS011;36332;51.384;0.040;2022-07-21T11:22:30;7.22;;;4.50;;
27706;SDS011;36332;51.384;0.040;2022-07-21T11:25:04;8.07;;;4.22;;
27706;SDS011;36332;51.384;0.040;2022-07-21T11:27:34;8.50;;;4.70;;
27706;SDS011;36332;51.384;0.040;2022-07-21T11:30:04;11.27;;;3.78;;
27706;SDS011;36332;51.384;0.040;2022-07-21T11:32:37;16.13;;;5.07;;
27706;SDS011;36332;51.384;0.040;2022-07-21T11:35:05;11.23;;;5.18;;
27706;SDS011;36332;51.384;0.040;2022-07-21T11:37:38;7.47;;;4.47;;
27706;SDS011;36332;51.384;0.040;2022-07-21T11:40:14;8.23;;;4.35;;
27706;SDS011;36332;51.384;0.040;2022-07-21T11:42:46;8.60;;;4.97;;
27706;SDS011;36332;51.384;0.040;2022-07-21T11:45:15;8.35;;;4.35;;
27706;SDS011;36332;51.384;0.040;2022-07-21T11:47:47;12.13;;;5.63;;
27706;SDS011;36332;51.384;0.040;2022-07-21T11:50:18;8.00;;;4.28;;
27706;SDS011;36332;51.384;0.040;2022-07-21T11:52:46;11.15;;;5.10;;
27706;SDS011;36332;51.384;0.040;2022-07-21T11:55:14;9.73;;;5.07;;
27706;SDS011;36332;51.384;0.040;2022-07-21T11:57:42;10.60;;;4.93;;
27706;SDS011;36332;51.384;0.040;2022-07-21T12:00:12;8.55;;;5.13;;
27706;SDS011;36332;51.384;0.040;2022-07-21T12:02:43;10.90;;;5.28;;
27706;SDS011;36332;51.384;0.040;2022-07-21T12:05:11;9.38;;;5.18;;
27706;SDS011;36332;51.384;0.040;2022-07-21T12:10:13;7.78;;;5.20;;
27706;SDS011;36332;51.384;0.040;2022-07-21T12:12:56;13.63;;;5.38;;
27706;SDS011;36332;51.384;0.040;2022-07-21T12:15:27;8.00;;;4.82;;
27706;SDS011;36332;51.384;0.040;2022-07-21T12:17:59;8.63;;;4.95;;
27706;SDS011;36332;51.384;0.040;2022-07-21T12:20:43;8.10;;;4.68;;
27706;SDS011;36332;51.384;0.040;2022-07-21T12:23:20;14.15;;;5.65;;
27706;SDS011;36332;51.384;0.040;2022-07-21T12:25:59;12.32;;;5.10;;
27706;SDS011;36332;51.384;0.040;2022-07-21T12:28:41;11.77;;;5.18;;
27706;SDS011;36332;51.384;0.040;2022-07-21T12:31:15;11.10;;;5.20;;
27706;SDS011;36332;51.384;0.040;2022-07-21T12:33:51;12.68;;;4.57;;
27706;SDS011;36332;51.384;0.040;2022-07-21T12:36:41;8.57;;;5.32;;
27706;SDS011;36332;51.384;0.040;2022-07-21T12:39:17;10.68;;;5.95;;
27706;SDS011;36332;51.384;0.040;2022-07-21T12:42:09;15.43;;;5.93;;
27706;SDS011;36332;51.384;0.040;2022-07-21T12:44:38;9.27;;;5.40;;
27706;SDS011;36332;51.384;0.040;2022-07-21T12:47:17;11.82;;;5.10;;
27706;SDS011;36332;51.384;0.040;2022-07-21T12:52:54;9.63;;;4.55;;
27706;SDS011;36332;51.384;0.040;2022-07-21T12:55:22;7.72;;;5.38;;
27706;SDS011;36332;51.384;0.040;2022-07-21T12:57:50;10.98;;;5.75;;
27706;SDS011;36332;51.384;0.040;2022-07-21T13:00:17;7.88;;;4.93;;
27706;SDS011;36332;51.384;0.040;2022-07-21T13:02:48;16.80;;;6.05;;
27706;SDS011;36332;51.384;0.040;2022-07-21T13:05:17;7.90;;;5.47;;
27706;SDS011;36332;51.384;0.040;2022-07-21T13:07:46;10.60;;;5.13;;
27706;SDS011;36332;51.384;0.040;2022-07-21T13:10:14;13.02;;;6.47;;
27706;SDS011;36332;51.384;0.040;2022-07-21T13:12:43;14.38;;;5.28;;
27706;SDS011;36332;51.384;0.040;2022-07-21T13:15:11;7.97;;;4.45;;
27706;SDS011;36332;51.384;0.040;2022-07-21T13:17:39;10.70;;;5.25;;
27706;SDS011;36332;51.384;0.040;2022-07-21T13:20:07;12.68;;;5.43;;
27706;SDS011;36332;51.384;0.040;2022-07-21T13:22:36;9.90;;;5.20;;
27706;SDS011;36332;51.384;0.040;2022-07-21T13:25:04;14.00;;;5.38;;
27706;SDS011;36332;51.384;0.040;2022-07-21T13:27:32;10.77;;;5.18;;
27706;SDS011;36332;51.384;0.040;2022-07-21T13:30:03;9.85;;;5.32;;
27706;SDS011;36332;51.384;0.040;2022-07-21T13:32:35;13.32;;;5.20;;
27706;SDS011;36332;51.384;0.040;2022-07-21T13:35:04;12.93;;;5.35;;
27706;SDS011;36332;51.384;0.040;2022-07-21T13:37:56;8.63;;;5.15;;
27706;SDS011;36332;51.384;0.040;2022-07-21T13:40:24;8.50;;;4.68;;
27706;SDS011;36332;51.384;0.040;2022-07-21T13:43:13;8.75;;;4.68;;
27706;SDS011;36332;51.384;0.040;2022-07-21T13:46:03;9.27;;;4.85;;
27706;SDS011;36332;51.384;0.040;2022-07-21T13:48:31;10.13;;;5.03;;
27706;SDS011;36332;51.384;0.040;2022-07-21T13:51:08;9.77;;;4.70;;
27706;SDS011;36332;51.384;0.040;2022-07-21T13:53:36;7.93;;;4.63;;
27706;SDS011;36332;51.384;0.040;2022-07-21T13:56:04;11.25;;;5.63;;
27706;SDS011;36332;51.384;0.040;2022-07-21T13:58:32;12.68;;;4.80;;
27706;SDS011;36332;51.384;0.040;2022-07-21T14:01:00;7.82;;;4.88;;
27706;SDS011;36332;51.384;0.040;2022-07-21T14:03:27;8.75;;;4.70;;
27706;SDS011;36332;51.384;0.040;2022-07-21T14:05:55;8.88;;;4.90;;
27706;SDS011;36332;51.384;0.040;2022-07-21T14:08:23;12.02;;;4.30;;
27706;SDS011;36332;51.384;0.040;2022-07-21T14:10:51;10.43;;;5.30;;
27706;SDS011;36332;51.384;0.040;2022-07-21T14:13:19;11.30;;;4.85;;
27706;SDS011;36332;51.384;0.040;2022-07-21T14:15:47;16.80;;;5.70;;
27706;SDS011;36332;51.384;0.040;2022-07-21T14:18:15;11.50;;;4.95;;
27706;SDS011;36332;51.384;0.040;2022-07-21T14:20:43;12.45;;;5.13;;
27706;SDS011;36332;51.384;0.040;2022-07-21T14:23:11;10.13;;;4.50;;
27706;SDS011;36332;51.384;0.040;2022-07-21T14:25:39;13.23;;;5.53;;
27706;SDS011;36332;51.384;0.040;2022-07-21T14:28:06;7.18;;;5.07;;
27706;SDS011;36332;51.384;0.040;2022-07-21T14:30:34;11.45;;;4.75;;
27706;SDS011;36332;51.384;0.040;2022-07-21T14:33:02;8.93;;;4.72;;
27706;SDS011;36332;51.384;0.040;2022-07-21T14:35:30;18.45;;;4.68;;
27706;SDS011;36332;51.384;0.040;2022-07-21T14:37:58;7.25;;;4.28;;
27706;SDS011;36332;51.384;0.040;2022-07-21T14:40:26;11.23;;;4.68;;
27706;SDS011;36332;51.384;0.040;2022-07-21T14:42:54;12.07;;;4.15;;
27706;SDS011;36332;51.384;0.040;2022-07-21T14:45:22;11.50;;;4.90;;
27706;SDS011;36332;51.384;0.040;2022-07-21T14:47:50;13.25;;;4.05;;
27706;SDS011;36332;51.384;0.040;2022-07-21T14:50:19;10.80;;;4.90;;
27706;SDS011;36332;51.384;0.040;2022-07-21T14:52:54;9.70;;;4.20;;
27706;SDS011;36332;51.384;0.040;2022-07-21T14:55:23;13.45;;;4.18;;
27706;SDS011;36332;51.384;0.040;2022-07-21T14:57:52;13.13;;;4.25;;
27706;SDS011;36332;51.384;0.040;2022-07-21T15:00:20;9.85;;;3.88;;
27706;SDS011;36332;51.384;0.040;2022-07-21T15:02:51;10.00;;;3.53;;
27706;SDS011;36332;51.384;0.040;2022-07-21T15:05:21;8.07;;;3.20;;
27706;SDS011;36332;51.384;0.040;2022-07-21T15:07:49;10.98;;;3.58;;
27706;SDS011;36332;51.384;0.040;2022-07-21T15:10:17;11.07;;;3.90;;
27706;SDS011;36332;51.384;0.040;2022-07-21T15:12:45;11.00;;;3.42;;
27706;SDS011;36332;51.384;0.040;2022-07-21T15:15:13;5.93;;;3.50;;
27706;SDS011;36332;51.384;0.040;2022-07-21T15:17:41;11.32;;;4.28;;
27706;SDS011;36332;51.384;0.040;2022-07-21T15:20:09;7.43;;;3.85;;